Time;durP1;ratioP1;P1;durP2;ratioP2;P2;SDS_P1;SDS_P2;PMS_P1;PMS_P2;Temp;Humidity;BMP_temperature;BMP_pressure;BME280_temperature;BME280_humidity;BME280_pressure;Samples;Min_cycle;Max_cycle;Signal;HPM_P1;HPM_P2
2020/12/28 00:00:16;;;;;;;58.63;37.47;;;4.70;99.90;;;;;;4958436;28;20035;-85
2020/12/28 00:02:51;;;;;;;63.80;38.97;;;4.70;99.90;;;;;;4956645;28;20101;-83
2020/12/28 00:05:29;;;;;;;60.55;36.95;;;4.80;99.90;;;;;;4957002;28;20029;-84
2020/12/28 00:07:55;;;;;;;63.17;36.50;;;4.80;99.90;;;;;;4956527;28;20101;-84
2020/12/28 00:10:24;;;;;;;66.97;40.85;;;4.80;99.90;;;;;;4955834;28;20422;-82
2020/12/28 00:12:50;;;;;;;63.83;39.47;;;4.90;99.90;;;;;;4956175;28;20038;-80
2020/12/28 00:15:25;;;;;;;63.25;38.85;;;4.70;99.90;;;;;;4974294;28;20039;-82
2020/12/28 00:18:02;;;;;;;60.15;37.35;;;4.70;99.90;;;;;;4974249;28;20026;-85
2020/12/28 00:20:30;;;;;;;65.65;38.75;;;4.60;99.90;;;;;;4989032;28;20387;-83
2020/12/28 00:22:56;;;;;;;72.55;40.55;;;4.60;99.90;;;;;;4974153;28;20023;-83
2020/12/28 00:25:26;;;;;;;58.72;38.72;;;4.50;99.90;;;;;;4974142;28;20101;-85
2020/12/28 00:27:52;;;;;;;60.95;38.85;;;4.60;99.90;;;;;;4956664;28;20034;-84
2020/12/28 00:30:19;;;;;;;61.92;37.25;;;4.80;99.90;;;;;;5006340;28;20234;-87
2020/12/28 00:32:44;;;;;;;68.93;38.78;;;4.80;99.90;;;;;;4993468;28;20367;-87
2020/12/28 00:35:12;;;;;;;63.47;39.20;;;4.80;99.90;;;;;;4976047;28;20493;-83
2020/12/28 00:37:38;;;;;;;62.70;37.95;;;4.80;99.90;;;;;;4976190;28;20058;-86
2020/12/28 00:40:06;;;;;;;64.70;37.20;;;4.90;99.90;;;;;;4993562;28;20026;-87
2020/12/28 00:42:32;;;;;;;65.32;38.92;;;4.80;99.90;;;;;;4993187;28;20037;-84
2020/12/28 00:44:58;;;;;;;65.22;34.92;;;4.40;99.90;;;;;;4993590;28;20117;-84
2020/12/28 00:47:24;;;;;;;63.55;33.00;;;4.40;99.90;;;;;;4975599;28;20123;-86
2020/12/28 00:49:53;;;;;;;50.80;29.77;;;4.50;99.90;;;;;;4976025;28;20030;-83
2020/12/28 00:52:18;;;;;;;53.05;31.98;;;4.60;99.90;;;;;;4993210;28;20054;-82
2020/12/28 00:54:45;;;;;;;55.45;32.97;;;4.60;99.90;;;;;;4975789;28;20049;-84
2020/12/28 00:57:11;;;;;;;52.67;32.50;;;4.60;99.90;;;;;;4993167;28;20027;-85
2020/12/28 00:59:37;;;;;;;66.35;35.25;;;4.50;99.90;;;;;;4992737;28;20045;-84
2020/12/28 01:02:03;;;;;;;67.88;37.80;;;4.50;99.90;;;;;;4975397;28;20026;-86
2020/12/28 01:04:28;;;;;;;65.93;35.72;;;4.30;99.90;;;;;;4993083;28;20029;-83
2020/12/28 01:06:54;;;;;;;61.13;34.78;;;4.30;99.90;;;;;;4992723;28;20044;-84
2020/12/28 01:09:21;;;;;;;61.95;36.45;;;4.40;99.90;;;;;;4975328;28;20483;-82
2020/12/28 01:11:47;;;;;;;64.40;35.40;;;4.30;99.90;;;;;;4975526;28;20032;-86
2020/12/28 01:14:13;;;;;;;59.35;37.60;;;4.30;99.90;;;;;;4975424;28;20026;-88
2020/12/28 01:16:39;;;;;;;62.30;37.95;;;4.30;99.90;;;;;;4975561;28;20065;-85
2020/12/28 01:19:05;;;;;;;64.72;37.47;;;4.40;99.90;;;;;;4976212;28;20023;-88
2020/12/28 01:21:31;;;;;;;58.75;36.05;;;4.40;99.90;;;;;;4993354;28;20057;-88
2020/12/28 01:23:57;;;;;;;68.45;39.03;;;4.50;99.90;;;;;;4975608;28;20414;-88
2020/12/28 01:26:23;;;;;;;63.17;36.30;;;4.50;99.90;;;;;;4975277;28;20050;-86
2020/12/28 01:28:49;;;;;;;58.75;35.00;;;4.50;99.90;;;;;;4975305;28;20042;-86
2020/12/28 01:31:15;;;;;;;64.20;36.55;;;4.60;99.90;;;;;;4992937;28;20018;-87
2020/12/28 01:33:41;;;;;;;58.10;34.97;;;4.70;99.90;;;;;;4996764;28;20034;-86
2020/12/28 01:36:06;;;;;;;57.00;33.80;;;4.80;99.90;;;;;;4979637;28;20026;-88
2020/12/28 01:38:32;;;;;;;57.13;34.30;;;4.70;99.90;;;;;;4996644;28;20058;-83
2020/12/28 01:40:58;;;;;;;58.42;34.22;;;4.70;99.90;;;;;;4979698;28;20414;-86
2020/12/28 01:43:28;;;;;;;59.45;35.53;;;4.80;99.90;;;;;;4996642;28;20022;-87
2020/12/28 01:45:54;;;;;;;54.42;32.72;;;4.70;99.90;;;;;;4996422;28;20042;-84
2020/12/28 01:48:20;;;;;;;62.42;36.58;;;4.60;99.90;;;;;;4996183;28;20041;-84
2020/12/28 01:50:46;;;;;;;56.03;33.42;;;4.50;99.90;;;;;;4979312;28;20474;-89
2020/12/28 01:53:14;;;;;;;56.70;33.50;;;4.50;99.90;;;;;;4996610;28;20485;-84
2020/12/28 01:55:46;;;;;;;55.92;34.10;;;4.70;99.90;;;;;;4979017;28;20041;-88
2020/12/28 01:58:11;;;;;;;49.78;31.67;;;4.50;99.90;;;;;;4962592;28;20234;-83
2020/12/28 02:00:37;;;;;;;57.00;33.10;;;4.10;99.90;;;;;;4996252;28;20034;-85
2020/12/28 02:03:07;;;;;;;58.67;32.83;;;4.40;99.90;;;;;;4995975;28;20383;-84
2020/12/28 02:05:32;;;;;;;53.03;31.95;;;4.40;99.90;;;;;;4978554;28;20026;-86
2020/12/28 02:08:00;;;;;;;48.97;31.48;;;4.50;99.90;;;;;;4995654;28;20377;-85
2020/12/28 02:10:26;;;;;;;56.65;34.85;;;4.60;99.90;;;;;;4995863;28;20027;-85
2020/12/28 02:12:51;;;;;;;56.22;34.08;;;4.70;99.90;;;;;;4978623;28;20038;-85
2020/12/28 02:15:17;;;;;;;49.55;31.17;;;4.50;99.90;;;;;;4978881;28;20034;-87
2020/12/28 02:17:43;;;;;;;55.50;33.45;;;4.70;99.90;;;;;;4995909;28;20042;-86
2020/12/28 02:20:09;;;;;;;51.13;32.33;;;4.80;99.90;;;;;;4996081;28;20023;-85
2020/12/28 02:22:35;;;;;;;48.25;29.42;;;4.80;99.90;;;;;;4978807;28;20121;-87
2020/12/28 02:25:00;;;;;;;45.83;29.10;;;4.50;99.90;;;;;;4978293;28;20055;-86
2020/12/28 02:27:26;;;;;;;45.63;28.65;;;4.40;99.90;;;;;;4978336;28;20042;-85
2020/12/28 02:29:52;;;;;;;49.63;30.25;;;4.50;99.90;;;;;;4978125;28;20146;-84
2020/12/28 02:32:18;;;;;;;48.03;27.75;;;4.50;99.90;;;;;;4995274;28;20022;-85
2020/12/28 02:34:43;;;;;;;49.30;27.77;;;4.50;99.90;;;;;;4977872;28;20026;-86
2020/12/28 02:37:09;;;;;;;46.63;27.48;;;4.50;99.90;;;;;;4977877;28;20026;-83
2020/12/28 02:39:35;;;;;;;43.20;26.25;;;4.50;99.90;;;;;;4977569;28;20080;-85
2020/12/28 02:42:01;;;;;;;44.67;27.58;;;4.40;99.90;;;;;;4977707;28;20117;-84
2020/12/28 02:44:26;;;;;;;43.97;26.98;;;4.40;99.90;;;;;;4994700;28;20470;-84
2020/12/28 02:46:52;;;;;;;46.28;26.42;;;4.50;99.90;;;;;;4977500;28;20042;-84
2020/12/28 02:49:18;;;;;;;44.67;26.60;;;4.50;99.90;;;;;;4977371;28;20026;-85
2020/12/28 02:51:43;;;;;;;42.40;25.58;;;4.60;99.90;;;;;;4977531;28;20031;-84
2020/12/28 02:54:09;;;;;;;44.45;26.30;;;4.70;99.90;;;;;;4977749;28;20019;-84
2020/12/28 02:56:35;;;;;;;41.28;25.00;;;4.70;99.90;;;;;;4977546;28;20494;-87
2020/12/28 02:59:01;;;;;;;43.92;26.52;;;4.70;99.90;;;;;;4995440;28;20466;-87
2020/12/28 03:01:26;;;;;;;44.38;27.00;;;4.70;99.90;;;;;;4995331;28;20029;-86
2020/12/28 03:03:52;;;;;;;44.45;27.75;;;4.70;99.90;;;;;;4994913;28;20034;-88
2020/12/28 03:06:18;;;;;;;48.15;27.27;;;4.70;99.90;;;;;;4977496;28;20034;-87
2020/12/28 03:08:43;;;;;;;44.15;28.58;;;4.70;99.90;;;;;;4995032;28;20025;-85
2020/12/28 03:11:09;;;;;;;43.45;27.25;;;4.50;99.90;;;;;;4994492;28;20120;-84
2020/12/28 03:13:35;;;;;;;49.92;28.63;;;4.50;99.90;;;;;;4976859;28;20466;-84
2020/12/28 03:16:00;;;;;;;44.92;25.85;;;4.60;99.90;;;;;;4994390;28;20611;-85
2020/12/28 03:18:26;;;;;;;43.28;25.35;;;4.60;99.90;;;;;;4994174;28;20538;-84
2020/12/28 03:20:52;;;;;;;40.35;25.85;;;4.60;99.90;;;;;;4976797;28;20543;-84
2020/12/28 03:23:18;;;;;;;43.92;24.50;;;4.70;99.90;;;;;;4994613;28;20044;-85
2020/12/28 03:25:43;;;;;;;45.58;25.48;;;4.70;99.90;;;;;;4977034;28;20047;-84
2020/12/28 03:28:10;;;;;;;44.30;24.85;;;4.70;99.90;;;;;;4976886;28;20508;-86
2020/12/28 03:30:36;;;;;;;40.55;24.42;;;4.60;99.90;;;;;;4961364;28;20034;-86
2020/12/28 03:33:01;;;;;;;38.20;23.70;;;4.50;99.90;;;;;;4974762;28;20041;-84
2020/12/28 03:35:27;;;;;;;45.88;25.67;;;4.50;99.90;;;;;;4957590;28;20055;-87
2020/12/28 03:38:10;;;;;;;48.97;25.83;;;4.50;99.90;;;;;;4974863;28;20027;-88
2020/12/28 03:40:36;;;;;;;43.83;26.08;;;4.30;99.90;;;;;;4957766;28;20027;-85
2020/12/28 03:43:01;;;;;;;42.53;24.70;;;4.40;99.90;;;;;;4974690;28;20019;-83
2020/12/28 03:45:27;;;;;;;43.47;24.77;;;4.50;99.90;;;;;;4957583;28;20410;-85
2020/12/28 03:47:53;;;;;;;41.88;25.67;;;4.70;99.90;;;;;;4957366;28;20039;-84
2020/12/28 03:50:19;;;;;;;43.63;25.20;;;4.70;99.90;;;;;;4974523;28;20545;-84
2020/12/28 03:52:44;;;;;;;45.15;23.42;;;4.80;99.90;;;;;;4974673;28;20085;-84
2020/12/28 03:55:10;;;;;;;43.03;24.65;;;4.80;99.90;;;;;;4956153;28;20027;-85
2020/12/28 03:57:36;;;;;;;39.70;24.80;;;4.90;99.90;;;;;;4974619;28;20027;-85
2020/12/28 04:00:03;;;;;;;36.03;23.85;;;4.70;99.90;;;;;;4974327;28;20074;-86
2020/12/28 04:02:30;;;;;;;38.08;23.45;;;4.70;99.90;;;;;;4957661;28;20019;-87
2020/12/28 04:04:56;;;;;;;37.88;23.02;;;4.50;99.90;;;;;;4957466;28;20030;-87
2020/12/28 04:07:22;;;;;;;37.03;22.88;;;4.60;99.90;;;;;;4957694;28;20038;-86
2020/12/28 04:09:49;;;;;;;38.65;22.52;;;4.70;99.90;;;;;;4974622;28;20069;-88
2020/12/28 04:12:15;;;;;;;33.63;21.63;;;4.80;99.90;;;;;;4974522;28;20448;-85
2020/12/28 04:14:40;;;;;;;37.58;23.52;;;4.80;99.90;;;;;;4957121;28;20552;-85
2020/12/28 04:17:06;;;;;;;41.20;22.95;;;4.80;99.90;;;;;;4957207;28;20029;-86
2020/12/28 04:19:32;;;;;;;37.65;22.17;;;4.60;99.90;;;;;;4974014;28;20502;-85
2020/12/28 04:21:58;;;;;;;36.08;23.40;;;4.70;99.90;;;;;;4988646;28;20041;-86
2020/12/28 04:24:23;;;;;;;37.78;23.58;;;4.70;99.90;;;;;;4956512;28;20033;-85
2020/12/28 04:26:49;;;;;;;38.25;22.90;;;4.60;99.90;;;;;;4956631;28;20039;-86
2020/12/28 04:29:15;;;;;;;40.00;22.30;;;4.60;99.90;;;;;;4974260;28;20035;-84
2020/12/28 04:31:41;;;;;;;39.65;23.58;;;4.70;99.90;;;;;;4973347;28;20030;-84
2020/12/28 04:34:08;;;;;;;35.38;21.33;;;4.70;99.90;;;;;;4973663;28;20217;-85
2020/12/28 04:36:39;;;;;;;36.65;21.33;;;4.40;99.90;;;;;;4956113;28;20126;-86
2020/12/28 04:39:05;;;;;;;41.08;21.88;;;4.50;99.90;;;;;;4957150;28;20111;-84
2020/12/28 04:41:31;;;;;;;45.75;22.40;;;4.40;99.90;;;;;;4973963;28;20038;-86
2020/12/28 04:43:57;;;;;;;40.50;22.08;;;4.40;99.90;;;;;;4973847;28;20031;-82
2020/12/28 04:46:27;;;;;;;41.22;21.30;;;4.50;99.90;;;;;;4973604;28;20038;-84
2020/12/28 04:48:54;;;;;;;43.20;21.13;;;4.60;99.90;;;;;;4973554;28;20041;-83
2020/12/28 04:51:22;;;;;;;42.83;19.45;;;4.70;99.90;;;;;;4955843;28;20057;-85
2020/12/28 04:53:50;;;;;;;40.65;19.77;;;4.60;99.90;;;;;;4973525;28;20038;-84
2020/12/28 04:56:16;;;;;;;35.17;18.90;;;4.50;99.90;;;;;;4955873;28;20026;-83
2020/12/28 04:58:41;;;;;;;39.72;19.00;;;4.70;99.90;;;;;;4972929;28;20034;-86
2020/12/28 05:01:07;;;;;;;39.08;18.38;;;4.60;99.90;;;;;;4955815;28;20437;-85
2020/12/28 05:03:33;;;;;;;39.55;19.55;;;4.70;99.90;;;;;;4956235;28;20130;-86
2020/12/28 05:05:59;;;;;;;36.38;19.25;;;4.70;99.90;;;;;;4955538;28;20035;-86
2020/12/28 05:08:25;;;;;;;42.92;18.98;;;4.80;99.90;;;;;;4955908;28;20114;-85
2020/12/28 05:10:51;;;;;;;34.53;17.83;;;4.80;99.90;;;;;;4973204;28;20078;-85
2020/12/28 05:13:17;;;;;;;35.95;19.08;;;4.80;99.90;;;;;;4955754;28;20062;-87
2020/12/28 05:15:57;;;;;;;40.70;19.60;;;4.80;99.90;;;;;;4956289;28;20034;-87
2020/12/28 05:18:23;;;;;;;37.63;19.13;;;4.90;99.90;;;;;;4956168;28;20502;-82
2020/12/28 05:20:50;;;;;;;38.05;19.88;;;4.90;99.90;;;;;;4973502;28;20026;-86
2020/12/28 05:23:17;;;;;;;34.97;18.27;;;4.90;99.90;;;;;;4956435;28;20058;-85
2020/12/28 05:25:44;;;;;;;40.28;18.42;;;4.90;99.90;;;;;;4973112;28;20051;-86
2020/12/28 05:28:15;;;;;;;39.05;19.55;;;4.90;99.90;;;;;;4956339;28;20034;-85
2020/12/28 05:30:44;;;;;;;;;;;4.80;99.90;;;;;;4956490;28;20138;-85
2020/12/28 05:33:12;;;;;;;40.05;18.00;;;4.90;99.90;;;;;;4956250;28;19906;-86
2020/12/28 05:35:39;;;;;;;39.38;18.65;;;4.90;99.90;;;;;;4956058;28;20109;-86
2020/12/28 05:38:06;;;;;;;29.75;17.65;;;4.90;99.90;;;;;;4973603;28;20083;-82
2020/12/28 05:40:36;;;;;;;37.35;18.98;;;4.90;99.90;;;;;;4956645;28;20554;-84
2020/12/28 05:43:04;;;;;;;33.10;17.55;;;5.00;99.90;;;;;;4956388;28;20458;-87
2020/12/28 05:45:31;;;;;;;35.38;18.10;;;5.00;99.90;;;;;;4974092;28;20430;-85
2020/12/28 05:47:58;;;;;;;36.22;18.08;;;5.00;99.90;;;;;;4956096;28;20034;-86
2020/12/28 05:50:31;;;;;;;39.05;17.95;;;5.00;99.90;;;;;;4955909;28;20409;-88
2020/12/28 05:53:02;;;;;;;42.78;19.58;;;5.00;99.90;;;;;;4955456;28;20031;-87
2020/12/28 05:55:31;;;;;;;43.40;20.10;;;4.80;99.90;;;;;;4973110;28;20015;-82
2020/12/28 05:57:59;;;;;;;39.35;19.02;;;4.60;99.90;;;;;;4955988;28;20506;-86
2020/12/28 06:00:25;;;;;;;51.38;22.65;;;4.50;99.90;;;;;;4972825;28;20629;-87
2020/12/28 06:02:51;;;;;;;48.20;20.73;;;4.40;99.90;;;;;;4955528;28;20027;-88
2020/12/28 06:05:21;;;;;;;41.88;19.65;;;4.40;99.90;;;;;;4973096;28;20022;-87
2020/12/28 06:07:54;;;;;;;42.85;20.05;;;4.30;99.90;;;;;;4956171;28;20034;-86
2020/12/28 06:10:20;;;;;;;69.97;24.10;;;4.30;99.90;;;;;;4955833;28;20077;-86
2020/12/28 06:16:23;;;;;;;39.13;17.60;;;4.20;99.90;;;;;;4932667;29;20064;-89
2020/12/28 06:18:56;;;;;;;65.68;31.55;;;4.10;99.90;;;;;;4951107;28;20055;-82
2020/12/28 06:21:22;;;;;;;56.22;27.92;;;4.80;99.90;;;;;;4975445;28;20032;-82
2020/12/28 06:23:49;;;;;;;46.33;22.15;;;4.90;99.90;;;;;;4975520;28;20023;-83
2020/12/28 06:26:22;;;;;;;39.22;19.27;;;4.60;99.90;;;;;;4957931;28;20054;-83
2020/12/28 06:28:48;;;;;;;38.97;18.27;;;4.30;99.90;;;;;;4958570;28;20030;-84
2020/12/28 06:31:13;;;;;;;41.47;17.80;;;4.10;99.90;;;;;;4958086;28;20034;-84
2020/12/28 06:33:49;;;;;;;41.33;17.95;;;4.30;99.90;;;;;;4967785;28;20027;-84
2020/12/28 06:36:16;;;;;;;45.42;17.83;;;4.40;99.90;;;;;;4964466;28;20028;-81
2020/12/28 06:38:42;;;;;;;38.72;18.30;;;4.00;99.90;;;;;;4990409;28;20398;-82
2020/12/28 06:41:08;;;;;;;41.53;18.95;;;4.10;99.90;;;;;;4978543;28;20041;-82
2020/12/28 06:43:39;;;;;;;38.40;17.88;;;4.40;99.90;;;;;;4994594;28;20026;-82
2020/12/28 06:46:05;;;;;;;40.45;18.40;;;4.50;99.90;;;;;;4977098;28;20120;-82
2020/12/28 06:48:31;;;;;;;39.85;17.77;;;4.60;99.90;;;;;;4994562;28;20481;-84
2020/12/28 06:51:06;;;;;;;46.53;17.90;;;4.70;99.90;;;;;;4977240;28;20022;-81
2020/12/28 06:53:31;;;;;;;48.42;18.98;;;4.70;99.90;;;;;;4994507;28;20031;-81
2020/12/28 06:56:10;;;;;;;37.60;17.17;;;4.80;99.90;;;;;;4977136;28;20023;-80
2020/12/28 06:58:36;;;;;;;34.15;16.95;;;4.80;99.90;;;;;;4989839;28;20065;-86
2020/12/28 07:01:54;;;;;;;41.25;17.42;;;4.80;99.90;;;;;;4983585;28;20559;-81
2020/12/28 07:04:26;;;;;;;37.92;15.70;;;4.70;99.90;;;;;;4973672;28;20035;-83
2020/12/28 07:09:23;;;;;;;106.00;51.42;;;5.40;99.90;;;;;;5038854;23;20057;-81
2020/12/28 07:11:50;;;;;;;116.40;52.88;;;5.90;99.90;;;;;;4992418;28;20105;-82
2020/12/28 07:14:18;;;;;;;114.15;59.67;;;5.60;99.90;;;;;;4993667;28;20026;-80
2020/12/28 07:16:44;;;;;;;48.55;21.83;;;5.60;99.90;;;;;;4992202;28;20131;-81
2020/12/28 07:19:10;;;;;;;36.90;17.75;;;5.30;99.90;;;;;;4991950;28;20018;-80
2020/12/28 07:21:36;;;;;;;32.70;16.95;;;5.30;99.90;;;;;;4990990;28;20173;-82
2020/12/28 07:24:06;;;;;;;38.10;17.17;;;5.30;99.90;;;;;;4991872;28;20038;-82
2020/12/28 07:26:31;;;;;;;40.65;17.05;;;5.30;99.90;;;;;;4992004;28;20024;-82
2020/12/28 07:28:57;;;;;;;32.00;15.93;;;5.00;99.90;;;;;;5010804;28;20109;-81
2020/12/28 07:31:26;;;;;;;32.95;17.85;;;4.60;99.90;;;;;;5011027;28;20642;-82
2020/12/28 07:33:55;;;;;;;31.20;16.38;;;4.80;99.90;;;;;;4993155;28;20024;-80
2020/12/28 07:36:24;;;;;;;33.13;16.73;;;4.80;99.90;;;;;;4995098;28;20095;-82
2020/12/28 07:38:50;;;;;;;35.92;17.90;;;5.00;99.90;;;;;;4995707;28;20029;-82
2020/12/28 07:41:18;;;;;;;34.78;16.90;;;5.00;99.90;;;;;;4995656;28;20061;-81
2020/12/28 07:44:02;;;;;;;36.35;18.15;;;5.10;99.90;;;;;;4993166;28;20022;-80
2020/12/28 07:46:31;;;;;;;39.13;18.40;;;5.10;99.90;;;;;;4992064;28;20057;-82
2020/12/28 07:49:29;;;;;;;38.67;17.17;;;5.10;99.90;;;;;;4975718;28;20073;-82
2020/12/28 07:52:03;;;;;;;37.22;17.77;;;4.90;99.90;;;;;;4993430;28;20038;-82
2020/12/28 07:54:58;;;;;;;37.40;18.60;;;5.10;99.90;;;;;;4993005;28;20391;-82
2020/12/28 07:57:41;;;;;;;33.55;17.52;;;5.00;99.90;;;;;;4968548;28;20088;-83
2020/12/28 08:00:08;;;;;;;36.88;17.73;;;5.00;99.90;;;;;;4993284;28;20023;-81
2020/12/28 08:02:42;;;;;;;48.58;18.77;;;5.10;99.90;;;;;;4975366;28;20022;-82
2020/12/28 08:05:09;;;;;;;42.65;21.92;;;4.60;99.90;;;;;;4993363;28;20026;-82
2020/12/28 08:07:42;;;;;;;47.30;19.30;;;4.80;99.90;;;;;;4993022;28;20050;-80
2020/12/28 08:10:10;;;;;;;43.03;20.27;;;4.80;99.90;;;;;;4975238;28;20028;-80
2020/12/28 08:12:49;;;;;;;42.72;19.55;;;5.10;99.90;;;;;;4992519;28;20023;-84
2020/12/28 08:15:30;;;;;;;40.92;19.67;;;5.30;99.90;;;;;;4992689;28;20032;-83
2020/12/28 08:18:09;;;;;;;42.70;20.02;;;5.40;99.90;;;;;;4992281;28;20026;-83
2020/12/28 08:20:39;;;;;;;40.42;20.15;;;5.60;99.90;;;;;;4992636;28;20556;-83
2020/12/28 08:23:06;;;;;;;37.63;19.35;;;5.30;99.90;;;;;;4975252;28;20038;-82
2020/12/28 08:25:33;;;;;;;39.72;19.33;;;5.30;99.90;;;;;;4992685;28;20041;-83
2020/12/28 08:28:00;;;;;;;45.03;21.52;;;5.40;99.90;;;;;;4974899;28;20034;-84
2020/12/28 08:30:27;;;;;;;35.33;20.02;;;5.40;99.90;;;;;;4975489;28;20033;-83
2020/12/28 08:32:56;;;;;;;37.40;19.42;;;5.40;99.90;;;;;;4992411;28;20026;-83
2020/12/28 08:35:23;;;;;;;41.65;20.05;;;5.30;99.90;;;;;;4992616;28;20026;-81
2020/12/28 08:37:50;;;;;;;38.28;20.25;;;5.50;99.90;;;;;;4975457;28;20034;-81
2020/12/28 08:40:18;;;;;;;39.58;19.65;;;5.60;99.90;;;;;;4974861;28;20022;-83
2020/12/28 08:42:50;;;;;;;43.20;20.30;;;5.60;99.90;;;;;;4974571;28;20018;-82
2020/12/28 08:45:25;;;;;;;41.00;19.35;;;5.70;99.90;;;;;;4975174;28;20018;-81
2020/12/28 08:47:53;;;;;;;39.08;21.83;;;6.00;99.90;;;;;;4992591;28;20104;-81
2020/12/28 08:50:19;;;;;;;49.58;22.55;;;6.00;99.90;;;;;;4992138;28;20018;-81
2020/12/28 08:52:54;;;;;;;42.63;21.98;;;5.80;99.90;;;;;;4992331;28;20042;-81
2020/12/28 08:55:20;;;;;;;39.53;21.05;;;6.00;99.90;;;;;;4991911;28;20093;-82
2020/12/28 08:57:59;;;;;;;40.10;20.38;;;6.00;99.90;;;;;;4974493;28;20018;-84
2020/12/28 09:00:26;;;;;;;46.22;22.83;;;6.00;99.90;;;;;;4992070;28;20022;-80
2020/12/28 09:02:57;;;;;;;50.63;23.48;;;6.00;99.90;;;;;;4992102;28;20014;-81
2020/12/28 09:05:32;;;;;;;47.42;24.30;;;6.10;99.90;;;;;;4992146;28;20481;-82
2020/12/28 09:07:58;;;;;;;44.63;22.33;;;6.30;99.90;;;;;;4991942;28;20059;-80
2020/12/28 09:10:23;;;;;;;47.08;21.90;;;6.40;99.90;;;;;;4974648;28;20045;-82
2020/12/28 09:12:50;;;;;;;46.10;24.70;;;6.10;99.90;;;;;;4991875;28;20041;-82
2020/12/28 09:15:15;;;;;;;44.80;22.38;;;6.00;99.90;;;;;;4974657;28;20117;-81
2020/12/28 09:17:41;;;;;;;53.25;24.90;;;6.00;99.90;;;;;;4991655;28;20183;-81
2020/12/28 09:20:07;;;;;;;43.78;23.90;;;6.10;99.90;;;;;;4974428;28;20050;-82
2020/12/28 09:22:33;;;;;;;49.38;25.98;;;6.20;99.90;;;;;;4992250;28;20482;-80
2020/12/28 09:24:59;;;;;;;48.35;24.40;;;6.10;99.90;;;;;;4974304;28;20031;-80
2020/12/28 09:27:25;;;;;;;44.70;24.95;;;6.30;99.90;;;;;;4991387;28;20482;-82
2020/12/28 09:29:51;;;;;;;51.60;23.73;;;6.40;99.90;;;;;;4974293;28;20400;-82
2020/12/28 09:32:16;;;;;;;51.92;24.60;;;6.50;99.90;;;;;;4991151;28;20201;-81
2020/12/28 09:34:42;;;;;;;51.33;23.83;;;6.50;99.90;;;;;;4991742;28;20378;-82
2020/12/28 09:37:08;;;;;;;58.88;26.02;;;6.50;99.90;;;;;;4974448;28;20042;-81
2020/12/28 09:41:59;;;;;;;58.15;25.45;;;6.60;99.90;;;;;;5334174;22;20046;-82
2020/12/28 09:44:26;;;;;;;52.65;25.30;;;6.80;99.90;;;;;;5011411;28;20018;-82
2020/12/28 09:46:53;;;;;;;48.97;26.38;;;6.80;99.90;;;;;;5010724;28;20470;-81
2020/12/28 09:49:22;;;;;;;47.00;25.33;;;6.70;99.90;;;;;;5011403;28;20049;-81
2020/12/28 09:51:55;;;;;;;50.33;25.07;;;7.10;99.90;;;;;;5010970;28;20036;-82
2020/12/28 09:54:23;;;;;;;51.65;26.08;;;7.60;99.90;;;;;;5017440;28;20017;-81
2020/12/28 09:56:49;;;;;;;49.40;24.38;;;7.90;99.90;;;;;;5032594;28;20040;-81
2020/12/28 09:59:16;;;;;;;49.00;24.40;;;7.80;99.90;;;;;;5030690;28;20377;-81
2020/12/28 10:01:45;;;;;;;49.72;24.55;;;7.10;99.90;;;;;;5023325;28;20080;-82
2020/12/28 10:04:14;;;;;;;50.03;25.23;;;7.10;99.90;;;;;;5014616;28;20018;-81
2020/12/28 10:07:02;;;;;;;49.03;24.88;;;7.40;99.90;;;;;;5014180;28;20037;-82
2020/12/28 10:09:28;;;;;;;51.00;25.63;;;7.00;99.90;;;;;;5027017;28;20025;-82
2020/12/28 10:11:54;;;;;;;50.53;26.35;;;6.60;99.90;;;;;;5023402;28;20108;-83
2020/12/28 10:14:20;;;;;;;44.17;23.95;;;6.80;99.90;;;;;;5012499;28;20030;-83
2020/12/28 10:16:46;;;;;;;48.20;24.95;;;6.90;99.90;;;;;;5001662;28;20026;-82
2020/12/28 10:19:12;;;;;;;49.72;26.42;;;6.80;99.90;;;;;;4994878;28;20055;-84
2020/12/28 10:21:37;;;;;;;46.72;26.25;;;6.70;99.90;;;;;;5026201;28;20025;-85
2020/12/28 10:24:03;;;;;;;48.47;26.23;;;6.70;99.90;;;;;;5031853;28;20030;-86
2020/12/28 10:26:32;;;;;;;43.33;22.80;;;6.60;99.90;;;;;;5033987;28;20044;-83
2020/12/28 10:28:58;;;;;;;44.70;23.17;;;6.70;99.90;;;;;;5019933;28;20167;-80
2020/12/28 10:31:24;;;;;;;47.70;23.65;;;6.70;99.90;;;;;;5014688;28;20124;-79
2020/12/28 10:33:50;;;;;;;43.97;23.40;;;6.90;99.90;;;;;;5014268;28;20398;-84
2020/12/28 10:36:21;;;;;;;44.95;23.48;;;7.60;99.90;;;;;;4999614;28;20124;-83
2020/12/28 10:38:47;;;;;;;;;;;7.90;99.90;;;;;;4998470;28;20049;-84
2020/12/28 10:41:13;;;;;;;45.42;25.25;;;7.70;99.90;;;;;;4994184;28;19932;-82
2020/12/28 10:43:40;;;;;;;49.85;26.08;;;7.50;99.90;;;;;;4994110;28;20109;-84
2020/12/28 10:46:07;;;;;;;53.47;25.95;;;7.70;99.90;;;;;;4994652;28;20022;-86
2020/12/28 10:48:33;;;;;;;48.53;26.90;;;7.30;99.90;;;;;;5011897;28;20342;-84
2020/12/28 10:50:59;;;;;;;50.15;24.92;;;7.10;99.90;;;;;;5033779;28;20040;-82
2020/12/28 10:53:24;;;;;;;55.83;26.73;;;7.30;99.90;;;;;;5022352;28;20032;-86
2020/12/28 10:55:50;;;;;;;49.28;25.27;;;7.40;99.90;;;;;;5033233;28;20034;-82
2020/12/28 10:58:16;;;;;;;47.55;25.98;;;7.60;99.90;;;;;;5030438;28;20405;-84
2020/12/28 11:00:42;;;;;;;47.35;25.63;;;7.10;99.90;;;;;;5030981;28;20029;-81
2020/12/28 11:03:08;;;;;;;47.28;26.08;;;7.10;99.90;;;;;;5032943;28;20436;-81
2020/12/28 11:05:34;;;;;;;55.75;26.95;;;7.60;99.90;;;;;;5031460;28;20469;-82
2020/12/28 11:07:59;;;;;;;46.75;25.63;;;7.90;99.90;;;;;;5022301;28;20203;-87
2020/12/28 11:10:25;;;;;;;43.78;25.58;;;7.90;99.90;;;;;;5013189;28;20037;-83
2020/12/28 11:12:51;;;;;;;45.50;26.95;;;8.30;99.90;;;;;;5004042;28;20037;-81
2020/12/28 11:15:17;;;;;;;56.83;28.67;;;8.40;99.90;;;;;;4993512;28;20100;-81
2020/12/28 11:17:42;;;;;;;50.92;27.23;;;8.00;99.90;;;;;;4993404;28;20030;-81
2020/12/28 11:20:09;;;;;;;57.70;26.65;;;8.40;99.90;;;;;;4993448;28;20101;-84
2020/12/28 11:22:36;;;;;;;49.90;26.83;;;8.70;99.90;;;;;;5000951;28;20026;-84
2020/12/28 11:25:03;;;;;;;50.83;27.00;;;9.30;99.90;;;;;;5031991;28;20049;-81
2020/12/28 11:27:30;;;;;;;49.30;27.20;;;10.10;99.90;;;;;;5018779;28;20034;-83
2020/12/28 11:29:57;;;;;;;44.53;26.38;;;10.50;99.90;;;;;;4993502;28;20082;-82
2020/12/28 11:32:23;;;;;;;47.50;26.48;;;10.70;99.90;;;;;;5032335;28;20026;-85
2020/12/28 11:34:49;;;;;;;46.55;24.02;;;11.70;99.90;;;;;;5032695;28;20429;-83
2020/12/28 11:37:15;;;;;;;44.00;23.92;;;12.40;99.90;;;;;;5028054;28;20025;-84
2020/12/28 11:39:40;;;;;;;44.75;24.20;;;12.10;99.90;;;;;;5012539;28;20034;-82
2020/12/28 11:42:06;;;;;;;47.05;25.20;;;12.60;99.90;;;;;;5009017;28;20050;-81
2020/12/28 11:44:32;;;;;;;43.70;24.95;;;12.80;99.90;;;;;;4993206;28;20489;-83
2020/12/28 11:46:58;;;;;;;40.92;24.60;;;13.20;99.90;;;;;;4992947;28;20484;-84
2020/12/28 11:49:24;;;;;;;42.28;23.08;;;13.40;99.90;;;;;;4993276;28;20470;-84
2020/12/28 11:51:54;;;;;;;43.50;24.00;;;13.60;99.30;;;;;;4993315;28;20033;-82
2020/12/28 11:54:23;;;;;;;39.10;23.20;;;13.20;99.20;;;;;;5010448;28;20100;-86
2020/12/28 11:56:49;;;;;;;35.90;22.63;;;13.00;99.90;;;;;;4997169;28;20041;-82
2020/12/28 11:59:15;;;;;;;43.95;24.02;;;12.80;99.90;;;;;;4999311;28;20026;-82
2020/12/28 12:01:46;;;;;;;40.55;23.90;;;12.90;99.90;;;;;;5000722;28;20014;-82
2020/12/28 12:04:12;;;;;;;37.85;23.23;;;13.30;99.50;;;;;;5000467;28;20093;-84
2020/12/28 12:06:38;;;;;;;38.20;21.73;;;13.80;98.70;;;;;;5782901;22;20008;-81
2020/12/28 12:09:13;;;;;;;34.42;21.33;;;14.00;96.90;;;;;;5010337;28;20443;-81
2020/12/28 12:11:46;;;;;;;37.70;21.95;;;14.40;96.00;;;;;;5010855;28;20057;-81
2020/12/28 12:14:13;;;;;;;37.22;20.50;;;14.80;93.80;;;;;;4973099;28;20026;-83
2020/12/28 12:16:39;;;;;;;34.30;20.23;;;15.20;93.00;;;;;;4990463;28;20037;-82
2020/12/28 12:19:05;;;;;;;34.95;20.42;;;15.50;91.40;;;;;;4990774;28;20018;-85
2020/12/28 12:21:31;;;;;;;32.60;20.77;;;15.70;90.40;;;;;;4993704;28;20124;-81
2020/12/28 12:23:57;;;;;;;34.25;20.13;;;14.70;90.40;;;;;;5011257;28;20366;-83
2020/12/28 12:26:24;;;;;;;36.88;20.30;;;13.80;93.40;;;;;;5011304;28;20470;-85
2020/12/28 12:28:51;;;;;;;38.53;22.00;;;13.10;95.70;;;;;;5012198;28;20121;-83
2020/12/28 12:31:18;;;;;;;35.90;21.52;;;12.90;98.00;;;;;;4994685;28;20046;-82
2020/12/28 12:33:45;;;;;;;35.35;20.42;;;13.10;99.90;;;;;;5006418;28;20076;-81
2020/12/28 12:36:11;;;;;;;33.60;20.58;;;13.80;98.30;;;;;;5004562;28;20037;-84
2020/12/28 12:38:38;;;;;;;35.88;21.23;;;14.00;96.90;;;;;;4992599;28;20018;-83
2020/12/28 12:41:04;;;;;;;35.58;20.85;;;14.70;95.40;;;;;;4993458;28;20030;-86
2020/12/28 12:43:29;;;;;;;30.83;19.58;;;14.80;94.10;;;;;;4994322;28;20024;-84
2020/12/28 12:45:56;;;;;;;37.20;22.17;;;14.40;94.20;;;;;;4994081;28;20104;-84